createdAt,value
2023-04-25T00:01:11.362Z,444.70
2023-04-25T00:03:16.041Z,442.95
2023-04-25T00:05:25.195Z,449.40
2023-04-25T00:07:29.401Z,437.93
2023-04-25T00:09:35.985Z,438.87
2023-04-25T00:11:40.073Z,436.67
2023-04-25T00:13:48.431Z,443.23
2023-04-25T00:15:54.160Z,438.53
2023-04-25T00:17:55.709Z,440.57
2023-04-25T00:19:57.515Z,435.73
2023-04-25T00:22:01.875Z,441.10
2023-04-25T00:24:03.605Z,442.10
2023-04-25T00:26:05.232Z,445.63
2023-04-25T00:28:25.089Z,442.53
2023-04-25T00:30:44.909Z,438.00
2023-04-25T00:32:49.906Z,441.83
2023-04-25T00:35:10.673Z,448.23
2023-04-25T00:37:12.733Z,439.63
2023-04-25T00:39:14.192Z,442.83
2023-04-25T00:41:19.572Z,442.40
2023-04-25T00:43:24.806Z,438.57
2023-04-25T00:45:28.567Z,438.33
2023-04-25T00:47:33.710Z,445.80
2023-04-25T00:49:37.967Z,437.50
2023-04-25T00:51:42.406Z,433.90
2023-04-25T00:53:43.989Z,437.37
2023-04-25T00:55:45.689Z,441.57
2023-04-25T00:57:47.892Z,434.23
2023-04-25T00:59:51.841Z,435.57
2023-04-25T01:01:53.372Z,435.98
2023-04-25T01:06:02.671Z,432.98
2023-04-25T01:08:06.819Z,443.43
2023-04-25T01:10:11.300Z,441.87
2023-04-25T01:12:13.436Z,436.43
2023-04-25T01:14:15.048Z,441.80
2023-04-25T01:18:21.526Z,439.13
2023-04-25T01:20:25.981Z,439.50
2023-04-25T01:22:27.591Z,441.23
2023-04-25T01:24:29.048Z,444.63
2023-04-25T01:28:38.219Z,439.10
2023-04-25T01:30:42.525Z,439.20
2023-04-25T01:33:03.717Z,439.33
2023-04-25T01:35:10.385Z,442.90
2023-04-25T01:37:12.024Z,449.25
2023-04-25T01:39:16.657Z,461.13
2023-04-25T01:41:18.918Z,462.30
2023-04-25T01:43:23.034Z,459.70
2023-04-25T01:47:33.011Z,454.92
2023-04-25T01:49:34.690Z,443.65
2023-04-25T01:51:55.040Z,455.63
2023-04-25T01:53:58.010Z,443.77
2023-04-25T01:56:19.539Z,459.43
2023-04-25T01:58:21.256Z,460.60
2023-04-25T02:00:22.788Z,462.67
2023-04-25T02:02:27.342Z,470.03
2023-04-25T02:04:32.051Z,462.63
2023-04-25T02:06:36.596Z,458.50
2023-04-25T02:08:38.558Z,453.10
2023-04-25T02:10:40.203Z,444.07
2023-04-25T02:12:41.864Z,442.67
2023-04-25T02:14:46.268Z,443.60
2023-04-25T02:16:47.977Z,440.50
2023-04-25T02:18:53.794Z,434.07
2023-04-25T02:20:59.495Z,437.53
2023-04-25T02:23:03.890Z,433.83
2023-04-25T02:25:08.224Z,431.47
2023-04-25T02:27:28.116Z,431.63
2023-04-25T02:31:33.757Z,428.03
2023-04-25T02:35:41.961Z,429.73
2023-04-25T02:37:43.649Z,445.60
2023-04-25T02:40:06.460Z,443.10
2023-04-25T02:42:13.684Z,434.77
2023-04-25T02:44:21.182Z,436.73
2023-04-25T02:46:39.431Z,443.20
2023-04-25T02:48:57.268Z,431.40
2023-04-25T02:51:13.770Z,435.23
2023-04-25T02:53:31.888Z,441.70
2023-04-25T02:55:44.151Z,435.60
2023-04-25T02:57:57.666Z,432.50
2023-04-25T03:00:27.323Z,436.00
2023-04-25T03:02:42.966Z,441.93
2023-04-25T03:04:57.994Z,436.23
2023-04-25T03:07:13.894Z,434.93
2023-04-25T03:09:29.430Z,430.17
2023-04-25T03:11:40.490Z,425.33
2023-04-25T03:13:52.464Z,423.17
2023-04-25T03:16:04.356Z,423.17
2023-04-25T03:18:17.025Z,416.70
2023-04-25T03:20:21.318Z,415.33
2023-04-25T03:22:25.611Z,417.53
2023-04-25T03:24:29.658Z,427.85
2023-04-25T03:26:34.411Z,417.70
2023-04-25T03:28:38.835Z,424.67
2023-04-25T03:30:40.616Z,413.87
2023-04-25T03:32:44.709Z,414.83
2023-04-25T03:34:48.950Z,417.87
2023-04-25T03:36:50.556Z,417.00
2023-04-25T03:38:52.112Z,420.47
2023-04-25T03:40:54.097Z,415.33
2023-04-25T03:42:58.365Z,427.03
2023-04-25T03:45:02.871Z,414.40
2023-04-25T03:47:07.213Z,125.45
2023-04-25T03:51:12.661Z,18.70
2023-04-25T03:53:16.949Z,21.05
2023-04-25T03:55:18.602Z,21.27
2023-04-25T03:57:20.110Z,22.35
2023-04-25T03:59:21.623Z,21.13
2023-04-25T04:01:23.142Z,23.15
2023-04-25T04:03:27.613Z,20.30
2023-04-25T04:07:34.372Z,22.90
2023-04-25T04:09:36.030Z,20.98
2023-04-25T04:11:39.410Z,21.38
2023-04-25T04:13:40.910Z,24.63
2023-04-25T04:15:45.472Z,16.35
2023-04-25T04:17:48.041Z,14.45
2023-04-25T04:19:52.574Z,15.98
2023-04-25T04:21:54.230Z,17.65
2023-04-25T04:23:55.640Z,9.77
2023-04-25T04:25:57.323Z,14.52
2023-04-25T04:27:59.947Z,15.85
2023-04-25T04:30:04.475Z,15.10
2023-04-25T04:34:13.982Z,17.83
2023-04-25T04:36:16.834Z,14.73
2023-04-25T04:38:38.354Z,17.90
2023-04-25T04:40:47.206Z,8.85
2023-04-25T04:42:51.391Z,20.52
2023-04-25T04:44:53.226Z,14.10
2023-04-25T04:46:57.657Z,21.70
2023-04-25T04:49:18.503Z,10.45
2023-04-25T04:51:20.240Z,17.58
2023-04-25T04:53:24.521Z,13.93
2023-04-25T04:55:26.025Z,17.33
2023-04-25T04:57:28.761Z,18.52
2023-04-25T04:59:30.193Z,17.80
2023-04-25T05:01:36.947Z,21.63
2023-04-25T05:03:41.475Z,14.25
2023-04-25T05:05:46.872Z,21.10
2023-04-25T05:07:51.566Z,19.10
2023-04-25T05:09:55.920Z,19.92
2023-04-25T05:12:00.190Z,43.55
2023-04-25T05:14:04.544Z,39.58
2023-04-25T05:16:06.232Z,57.90
2023-04-25T05:18:10.973Z,42.28
2023-04-25T05:20:12.809Z,50.72
2023-04-25T05:22:14.372Z,47.92
2023-04-25T05:26:22.959Z,41.58
2023-04-25T05:28:43.188Z,49.30
2023-04-25T05:30:47.723Z,75.95
2023-04-25T05:32:51.848Z,121.88
2023-04-25T05:34:53.561Z,123.47
2023-04-25T05:36:55.108Z,71.45
2023-04-25T05:38:56.545Z,73.85
2023-04-25T05:41:16.574Z,69.13
2023-04-25T05:43:20.919Z,55.90
2023-04-25T05:45:25.233Z,80.25
2023-04-25T05:47:35.819Z,74.30
2023-04-25T05:49:47.719Z,82.10
2023-04-25T05:52:03.289Z,66.18
2023-04-25T05:54:12.442Z,72.82
2023-04-25T05:56:31.564Z,48.70
2023-04-25T05:58:47.580Z,42.58
2023-04-25T06:01:02.959Z,32.30
2023-04-25T06:03:15.892Z,22.88
2023-04-25T06:05:32.733Z,27.77
2023-04-25T06:07:44.654Z,20.10
2023-04-25T06:10:14.969Z,11.68
2023-04-25T06:12:29.068Z,23.77
2023-04-25T06:16:56.829Z,23.00
2023-04-25T06:19:08.687Z,14.43
2023-04-25T06:21:38.059Z,22.75
2023-04-25T06:23:52.424Z,12.73
2023-04-25T06:25:56.386Z,18.73
2023-04-25T06:28:00.777Z,14.27
2023-04-25T06:30:08.585Z,13.18
2023-04-25T06:32:10.062Z,8.60
2023-04-25T06:34:11.645Z,13.82
2023-04-25T06:36:13.214Z,13.93
2023-04-25T06:38:17.523Z,8.10
2023-04-25T06:40:18.998Z,6.88
2023-04-25T06:42:23.376Z,7.75
2023-04-25T06:44:30.658Z,6.95
2023-04-25T06:46:35.177Z,10.77
2023-04-25T06:48:36.650Z,13.05
2023-04-25T06:50:40.674Z,8.02
2023-04-25T06:52:45.018Z,8.70
2023-04-25T06:54:49.236Z,10.85
2023-04-25T06:56:50.828Z,5.93
2023-04-25T06:58:54.898Z,9.68
2023-04-25T07:00:59.180Z,11.13
2023-04-25T07:03:19.632Z,14.23
2023-04-25T07:05:21.866Z,10.63
2023-04-25T07:07:23.609Z,9.57
2023-04-25T07:09:25.177Z,9.00
2023-04-25T07:11:29.636Z,9.40
2023-04-25T07:13:34.290Z,8.00
2023-04-25T07:15:56.726Z,7.57
2023-04-25T07:17:58.777Z,12.85
2023-04-25T07:20:04.535Z,7.40
2023-04-25T07:22:08.762Z,7.35
2023-04-25T07:24:12.918Z,9.23
2023-04-25T07:26:14.357Z,9.40
2023-04-25T07:28:19.677Z,7.72
2023-04-25T07:30:24.058Z,7.15
2023-04-25T07:32:26.177Z,9.95
2023-04-25T07:34:27.785Z,11.50
2023-04-25T07:36:32.366Z,7.38
2023-04-25T07:38:34.016Z,11.88
2023-04-25T07:40:38.244Z,6.00
2023-04-25T07:42:42.812Z,7.45
2023-04-25T07:44:44.565Z,9.23
2023-04-25T07:46:48.636Z,8.60
2023-04-25T07:48:53.195Z,6.65
2023-04-25T07:50:57.764Z,8.27
2023-04-25T07:53:01.960Z,9.02
2023-04-25T07:55:06.446Z,9.77
2023-04-25T07:57:07.884Z,8.85
2023-04-25T07:59:09.317Z,6.68
2023-04-25T08:01:13.638Z,7.20
2023-04-25T08:03:18.130Z,6.32
2023-04-25T08:05:22.435Z,5.25
2023-04-25T08:07:27.640Z,7.30
2023-04-25T08:09:47.932Z,4.82
2023-04-25T08:11:52.379Z,6.53
2023-04-25T08:13:56.671Z,6.57
2023-04-25T08:15:58.258Z,4.32
2023-04-25T08:18:00.600Z,9.82
2023-04-25T08:20:02.240Z,12.43
2023-04-25T08:22:07.105Z,5.05
2023-04-25T08:24:08.597Z,4.30
2023-04-25T08:26:10.049Z,4.05
2023-04-25T08:28:14.961Z,8.38
2023-04-25T08:30:19.497Z,4.57
2023-04-25T08:32:22.250Z,6.32
2023-04-25T08:34:23.684Z,5.20
2023-04-25T08:36:38.577Z,4.63
2023-04-25T08:38:44.246Z,7.55
2023-04-25T08:41:04.092Z,5.20
2023-04-25T08:43:12.752Z,7.40
2023-04-25T08:45:17.340Z,2.80
2023-04-25T08:47:22.708Z,7.50
2023-04-25T08:49:27.414Z,8.48
2023-04-25T08:51:32.877Z,3.40
2023-04-25T08:53:36.356Z,3.38
2023-04-25T08:55:40.597Z,5.38
2023-04-25T08:57:47.170Z,5.15
2023-04-25T08:59:54.539Z,3.53
2023-04-25T09:02:00.722Z,5.95
2023-04-25T09:04:04.082Z,4.65
2023-04-25T09:06:07.153Z,4.05
2023-04-25T09:08:11.382Z,5.10
2023-04-25T09:10:17.483Z,8.27
2023-04-25T09:12:26.297Z,4.25
2023-04-25T09:14:32.042Z,4.03
2023-04-25T09:16:38.294Z,8.18
2023-04-25T09:18:48.627Z,5.97
2023-04-25T09:23:05.229Z,3.75
2023-04-25T09:25:16.388Z,5.18
2023-04-25T09:27:26.562Z,5.78
2023-04-25T09:29:35.901Z,4.85
2023-04-25T09:31:40.678Z,6.28
2023-04-25T09:33:42.143Z,2.83
2023-04-25T09:35:44.485Z,8.43
2023-04-25T09:37:51.834Z,6.60
2023-04-25T09:40:13.524Z,3.55
2023-04-25T09:42:16.696Z,5.97
2023-04-25T09:46:22.186Z,6.38
2023-04-25T09:48:27.501Z,1.77
2023-04-25T09:51:14.789Z,3.53
2023-04-25T09:53:18.981Z,3.25
2023-04-25T09:55:23.347Z,3.72
2023-04-25T09:57:25.545Z,2.17
2023-04-25T09:59:30.994Z,3.20
2023-04-25T10:01:32.863Z,5.57
2023-04-25T10:03:36.054Z,6.70
2023-04-25T10:05:38.737Z,3.13
2023-04-25T10:07:43.328Z,4.85
2023-04-25T10:09:46.760Z,4.78
2023-04-25T10:11:51.487Z,3.95
2023-04-25T10:13:57.035Z,2.38
2023-04-25T10:16:02.390Z,3.42
2023-04-25T10:18:07.428Z,3.35
2023-04-25T10:20:12.450Z,2.63
2023-04-25T10:22:24.398Z,1.25
2023-04-25T10:24:29.121Z,5.05
2023-04-25T10:26:33.633Z,3.13
2023-04-25T10:29:03.817Z,1.45
2023-04-25T10:31:10.817Z,3.15
2023-04-25T10:33:19.796Z,4.25
2023-04-25T10:35:40.159Z,4.20
2023-04-25T10:38:03.594Z,4.40
2023-04-25T10:40:11.332Z,4.35
2023-04-25T10:42:15.454Z,3.58
2023-04-25T10:44:37.754Z,2.78
2023-04-25T10:46:39.325Z,1.83
2023-04-25T10:48:53.443Z,5.53
2023-04-25T10:51:10.381Z,1.75
2023-04-25T10:53:15.469Z,5.45
2023-04-25T10:55:16.942Z,4.07
2023-04-25T10:57:36.860Z,3.20
2023-04-25T10:59:41.357Z,4.18
2023-04-25T11:01:47.031Z,5.38
2023-04-25T11:03:58.346Z,9.63
2023-04-25T11:06:03.468Z,4.75
2023-04-25T11:08:15.117Z,5.30
2023-04-25T11:10:16.786Z,5.18
2023-04-25T11:12:18.706Z,3.33
2023-04-25T11:16:46.059Z,2.17
2023-04-25T11:18:47.592Z,4.15
2023-04-25T11:20:49.464Z,2.38
2023-04-25T11:22:52.770Z,6.10
2023-04-25T11:27:03.310Z,2.63
2023-04-25T11:29:07.955Z,4.80
2023-04-25T11:31:10.785Z,3.17
2023-04-25T11:33:15.277Z,2.83
2023-04-25T11:35:17.402Z,6.18
2023-04-25T11:37:19.028Z,5.28
2023-04-25T11:39:21.039Z,6.05
2023-04-25T11:41:23.253Z,6.25
2023-04-25T11:43:27.478Z,6.15
2023-04-25T11:45:29.742Z,4.45
2023-04-25T11:47:31.561Z,3.92
2023-04-25T11:49:36.712Z,4.30
2023-04-25T11:51:44.335Z,4.78
2023-04-25T11:53:45.998Z,5.75
2023-04-25T11:55:47.736Z,3.65
2023-04-25T11:57:50.415Z,7.05
2023-04-25T11:59:55.807Z,2.53
2023-04-25T12:01:59.526Z,2.53
2023-04-25T12:04:38.901Z,5.63
2023-04-25T12:06:55.711Z,1.88
2023-04-25T12:09:05.499Z,2.72
2023-04-25T12:11:22.185Z,3.95
2023-04-25T12:13:27.581Z,4.55
2023-04-25T12:15:31.136Z,3.00
2023-04-25T12:17:37.327Z,3.53
2023-04-25T12:19:42.540Z,3.92
2023-04-25T12:21:57.322Z,3.15
2023-04-25T12:24:28.616Z,3.92
2023-04-25T12:26:48.103Z,5.50
2023-04-25T12:28:52.298Z,3.08
2023-04-25T12:31:06.917Z,5.55
2023-04-25T12:33:13.303Z,5.60
2023-04-25T12:35:20.277Z,9.65
2023-04-25T12:37:24.117Z,7.35
2023-04-25T12:39:27.886Z,6.38
2023-04-25T12:41:29.888Z,7.18
2023-04-25T12:43:31.439Z,3.97
2023-04-25T12:45:36.220Z,5.45
2023-04-25T12:47:37.897Z,3.30
2023-04-25T12:49:42.263Z,3.25
2023-04-25T12:51:44.025Z,4.43
2023-04-25T12:53:45.516Z,5.55
2023-04-25T12:55:49.675Z,5.72
2023-04-25T12:57:51.058Z,6.15
2023-04-25T12:59:52.607Z,4.38
2023-04-25T13:01:56.695Z,3.33
2023-04-25T13:03:58.391Z,4.20
2023-04-25T13:06:03.021Z,4.15
2023-04-25T13:08:23.303Z,3.70
2023-04-25T13:10:24.791Z,6.55
2023-04-25T13:12:44.884Z,3.47
2023-04-25T13:14:49.300Z,7.90
2023-04-25T13:16:54.139Z,6.60
2023-04-25T13:18:58.895Z,3.55
2023-04-25T13:21:04.213Z,3.85
2023-04-25T13:23:08.526Z,3.38
2023-04-25T13:25:10.153Z,4.05
2023-04-25T13:27:11.588Z,2.85
2023-04-25T13:29:15.897Z,2.85
2023-04-25T13:31:17.372Z,5.22
2023-04-25T13:33:21.644Z,3.22
2023-04-25T13:35:25.796Z,3.45
2023-04-25T13:37:27.325Z,4.07
2023-04-25T13:39:31.578Z,4.95
2023-04-25T13:41:35.976Z,2.53
2023-04-25T13:43:37.465Z,4.10
2023-04-25T13:45:42.472Z,4.45
2023-04-25T13:47:43.993Z,6.13
2023-04-25T13:49:49.035Z,3.17
2023-04-25T13:51:50.550Z,3.35
2023-04-25T13:53:54.816Z,4.30
2023-04-25T13:55:56.272Z,6.78
2023-04-25T13:58:16.463Z,5.97
2023-04-25T14:00:21.303Z,7.30
2023-04-25T14:02:41.461Z,7.03
2023-04-25T14:04:46.064Z,4.57
2023-04-25T14:06:47.944Z,3.25
2023-04-25T14:08:51.971Z,4.72
2023-04-25T14:10:53.387Z,3.90
2023-04-25T14:12:54.836Z,4.93
2023-04-25T14:14:56.431Z,6.43
2023-04-25T14:16:58.337Z,5.47
2023-04-25T14:18:59.889Z,7.38
2023-04-25T14:21:01.321Z,5.72
2023-04-25T14:23:02.940Z,4.80
2023-04-25T14:25:07.415Z,7.38
2023-04-25T14:27:09.074Z,5.88
2023-04-25T14:29:12.781Z,6.45
2023-04-25T14:33:35.110Z,6.47
2023-04-25T14:35:36.697Z,4.63
2023-04-25T14:37:41.207Z,4.40
2023-04-25T14:39:46.477Z,4.00
2023-04-25T14:41:48.058Z,4.70
2023-04-25T14:43:52.543Z,7.13
2023-04-25T14:45:56.804Z,2.92
2023-04-25T14:48:02.942Z,3.67
2023-04-25T14:50:08.277Z,3.13
2023-04-25T14:52:09.745Z,7.40
2023-04-25T14:54:14.026Z,5.20
2023-04-25T14:56:15.859Z,3.30
2023-04-25T14:58:20.786Z,7.00
2023-04-25T15:00:23.025Z,4.07
2023-04-25T15:02:27.632Z,6.00
2023-04-25T15:04:29.245Z,4.88
2023-04-25T15:06:31.415Z,3.92
2023-04-25T15:08:33.748Z,4.47
2023-04-25T15:10:37.930Z,7.47
2023-04-25T15:12:42.185Z,7.25
2023-04-25T15:14:48.973Z,9.70
2023-04-25T15:16:54.681Z,4.20
2023-04-25T15:18:56.155Z,5.53
2023-04-25T15:21:00.544Z,6.57
2023-04-25T15:23:21.199Z,3.55
2023-04-25T15:25:27.217Z,2.28
2023-04-25T15:27:33.181Z,9.25
2023-04-25T15:29:37.623Z,9.90
2023-04-25T15:31:39.077Z,6.70
2023-04-25T15:35:44.381Z,7.80
2023-04-25T15:37:49.708Z,7.25
2023-04-25T15:40:10.795Z,6.28
2023-04-25T15:42:16.796Z,8.00
2023-04-25T15:44:21.000Z,3.90
2023-04-25T15:46:23.781Z,11.85
2023-04-25T15:48:28.346Z,7.80
2023-04-25T15:50:31.862Z,6.03
2023-04-25T15:52:34.041Z,7.03
2023-04-25T15:54:35.605Z,15.13
2023-04-25T15:56:38.786Z,5.95
2023-04-25T15:58:40.262Z,8.57
2023-04-25T16:00:46.230Z,4.85
2023-04-25T16:02:48.577Z,7.85
2023-04-25T16:04:53.313Z,13.23
2023-04-25T16:06:56.812Z,10.73
2023-04-25T16:09:01.948Z,6.60
2023-04-25T16:11:09.283Z,7.78
2023-04-25T16:13:14.066Z,8.25
2023-04-25T16:15:18.318Z,5.03
2023-04-25T16:17:19.977Z,7.47
2023-04-25T16:19:22.012Z,6.57
2023-04-25T16:21:25.600Z,7.65
2023-04-25T16:25:31.980Z,5.53
2023-04-25T16:27:37.947Z,14.82
2023-04-25T16:29:42.503Z,9.43
2023-04-25T16:31:44.565Z,5.53
2023-04-25T16:33:49.452Z,8.18
2023-04-25T16:35:52.554Z,4.32
2023-04-25T16:37:54.293Z,9.40
2023-04-25T16:39:55.836Z,4.15
2023-04-25T16:42:00.117Z,6.05
2023-04-25T16:44:01.598Z,8.20
2023-04-25T16:46:06.009Z,7.57
2023-04-25T16:48:08.420Z,6.03
2023-04-25T16:50:16.438Z,4.63
2023-04-25T16:52:23.606Z,4.50
2023-04-25T16:54:25.776Z,8.57
2023-04-25T16:56:30.113Z,7.03
2023-04-25T16:58:34.932Z,6.15
2023-04-25T17:00:56.674Z,9.02
2023-04-25T17:02:58.426Z,8.80
2023-04-25T17:05:03.590Z,5.85
2023-04-25T17:07:08.797Z,3.97
2023-04-25T17:09:13.532Z,4.15
2023-04-25T17:11:15.060Z,9.68
2023-04-25T17:13:16.722Z,10.52
2023-04-25T17:15:18.145Z,6.25
2023-04-25T17:17:21.380Z,8.43
2023-04-25T17:19:22.839Z,4.85
2023-04-25T17:21:24.267Z,6.40
2023-04-25T17:25:29.996Z,5.10
2023-04-25T17:27:34.817Z,5.40
2023-04-25T17:29:36.259Z,6.93
2023-04-25T17:31:57.126Z,7.03
2023-04-25T17:33:58.786Z,8.50
2023-04-25T17:36:19.027Z,12.27
2023-04-25T17:38:23.239Z,6.60
2023-04-25T17:40:26.104Z,7.88
2023-04-25T17:42:46.525Z,6.72
2023-04-25T17:44:50.860Z,5.55
2023-04-25T17:46:54.963Z,2.60
2023-04-25T17:49:15.090Z,8.27
2023-04-25T17:51:35.025Z,5.10
2023-04-25T17:53:36.651Z,1.98
2023-04-25T17:55:43.588Z,9.00
2023-04-25T17:57:47.832Z,6.75
2023-04-25T17:59:49.329Z,9.70
2023-04-25T18:02:10.846Z,7.00
2023-04-25T18:04:12.670Z,8.47
2023-04-25T18:06:14.062Z,6.63
2023-04-25T18:10:26.763Z,5.10
2023-04-25T18:12:42.198Z,8.80
2023-04-25T18:15:00.733Z,5.18
2023-04-25T18:17:13.061Z,2.45
2023-04-25T18:19:28.673Z,5.78
2023-04-25T18:21:40.809Z,6.35
2023-04-25T18:23:49.178Z,5.65
2023-04-25T18:26:02.231Z,8.07
2023-04-25T18:28:10.670Z,104.75
2023-04-25T18:30:18.719Z,9.88
2023-04-25T18:32:25.961Z,5.40
2023-04-25T18:34:33.868Z,7.88
2023-04-25T18:36:39.557Z,6.50
2023-04-25T18:38:44.036Z,8.80
2023-04-25T18:41:02.314Z,4.30
2023-04-25T18:43:21.472Z,5.28
2023-04-25T18:45:26.617Z,4.35
2023-04-25T18:47:50.785Z,2.92
2023-04-25T18:49:55.407Z,5.88
2023-04-25T18:51:57.739Z,7.68
2023-04-25T18:54:02.202Z,3.45
2023-04-25T18:56:03.785Z,8.60
2023-04-25T18:58:05.337Z,8.45
2023-04-25T19:02:11.562Z,7.22
2023-04-25T19:04:16.262Z,3.85
2023-04-25T19:06:17.818Z,6.30
2023-04-25T19:08:19.342Z,6.00
2023-04-25T19:10:23.897Z,9.82
2023-04-25T19:12:25.563Z,10.65
2023-04-25T19:14:31.947Z,7.68
2023-04-25T19:16:38.915Z,9.55
2023-04-25T19:18:43.957Z,6.18
2023-04-25T19:20:48.312Z,9.05
2023-04-25T19:25:09.109Z,4.93
2023-04-25T19:29:14.661Z,8.70
2023-04-25T19:31:19.939Z,4.63
2023-04-25T19:33:21.652Z,10.77
2023-04-25T19:35:30.696Z,5.25
2023-04-25T19:37:32.191Z,8.02
2023-04-25T19:39:33.625Z,11.32
2023-04-25T19:41:39.003Z,4.47
2023-04-25T19:43:43.440Z,4.60
2023-04-25T19:45:47.728Z,12.32
2023-04-25T19:47:53.034Z,5.13
2023-04-25T19:49:54.478Z,5.47
2023-04-25T19:51:58.537Z,4.00
2023-04-25T19:54:00.181Z,7.22
2023-04-25T19:56:04.909Z,8.85
2023-04-25T19:58:06.950Z,5.70
2023-04-25T20:00:12.866Z,3.50
2023-04-25T20:02:18.349Z,7.03
2023-04-25T20:04:19.827Z,8.75
2023-04-25T20:06:24.149Z,4.95
2023-04-25T20:08:26.138Z,5.65
2023-04-25T20:10:27.787Z,7.07
2023-04-25T20:14:36.608Z,5.88
2023-04-25T20:16:38.145Z,10.77
2023-04-25T20:18:43.131Z,6.43
2023-04-25T20:20:44.758Z,2.83
2023-04-25T20:22:50.890Z,5.97
2023-04-25T20:25:12.061Z,5.80
2023-04-25T20:27:13.663Z,8.48
2023-04-25T20:29:15.469Z,6.00
2023-04-25T20:31:20.163Z,6.35
2023-04-25T20:33:24.539Z,5.47
2023-04-25T20:35:28.898Z,6.63
2023-04-25T20:37:50.597Z,7.30
2023-04-25T20:39:54.944Z,4.43
2023-04-25T20:41:57.013Z,6.05
2023-04-25T20:44:02.884Z,5.90
2023-04-25T20:46:22.960Z,6.53
2023-04-25T20:48:27.363Z,5.28
2023-04-25T20:50:33.375Z,6.43
2023-04-25T20:52:35.376Z,5.40
2023-04-25T20:54:55.619Z,4.63
2023-04-25T20:59:04.649Z,6.97
2023-04-25T21:01:08.996Z,7.78
2023-04-25T21:03:12.015Z,3.13
2023-04-25T21:05:16.299Z,4.53
2023-04-25T21:07:20.624Z,8.80
2023-04-25T21:09:22.291Z,6.13
2023-04-25T21:11:23.865Z,6.93
2023-04-25T21:13:29.126Z,6.28
2023-04-25T21:15:33.669Z,3.40
2023-04-25T21:17:35.192Z,5.85
2023-04-25T21:19:44.386Z,5.22
2023-04-25T21:21:58.628Z,4.47
2023-04-25T21:24:09.793Z,7.95
2023-04-25T21:26:20.898Z,4.57
2023-04-25T21:28:37.703Z,9.40
2023-04-25T21:30:51.349Z,8.68
2023-04-25T21:33:03.158Z,5.32
2023-04-25T21:35:13.001Z,6.75
2023-04-25T21:37:25.307Z,5.13
2023-04-25T21:39:37.662Z,6.63
2023-04-25T21:41:52.554Z,6.28
2023-04-25T21:43:58.648Z,6.60
2023-04-25T21:48:25.442Z,4.20
2023-04-25T21:50:37.406Z,6.30
2023-04-25T21:52:40.396Z,7.10
2023-04-25T21:54:41.849Z,5.43
2023-04-25T21:57:01.806Z,5.05
2023-04-25T21:59:06.213Z,3.58
2023-04-25T22:01:07.735Z,9.05
2023-04-25T22:03:09.368Z,9.13
2023-04-25T22:05:13.772Z,7.82
2023-04-25T22:07:15.567Z,6.22
2023-04-25T22:09:16.994Z,9.43
2023-04-25T22:11:18.569Z,6.40
2023-04-25T22:13:23.038Z,9.90
2023-04-25T22:15:24.546Z,4.45
2023-04-25T22:17:27.745Z,9.82
2023-04-25T22:19:30.386Z,4.07
2023-04-25T22:21:31.877Z,5.57
2023-04-25T22:23:52.861Z,6.60
2023-04-25T22:25:57.312Z,4.95
2023-04-25T22:28:01.592Z,5.68
2023-04-25T22:30:03.602Z,9.07
2023-04-25T22:32:23.740Z,4.90
2023-04-25T22:34:25.220Z,6.60
2023-04-25T22:38:31.135Z,13.18
2023-04-25T22:40:32.771Z,4.78
2023-04-25T22:42:41.149Z,7.35
2023-04-25T22:44:46.200Z,7.90
2023-04-25T22:46:50.296Z,7.43
2023-04-25T22:49:10.298Z,8.48
2023-04-25T22:51:11.916Z,11.00
2023-04-25T22:53:13.513Z,4.53
2023-04-25T22:55:14.905Z,4.82
2023-04-25T22:57:21.355Z,6.18
2023-04-25T22:59:26.157Z,9.25
2023-04-25T23:01:46.668Z,6.55
2023-04-25T23:03:48.684Z,7.63
2023-04-25T23:05:53.200Z,9.82
2023-04-25T23:08:14.765Z,13.50
2023-04-25T23:10:16.355Z,12.43
2023-04-25T23:12:20.785Z,5.57
2023-04-25T23:14:22.302Z,7.88
2023-04-25T23:16:23.820Z,8.63
2023-04-25T23:18:43.908Z,9.45
2023-04-25T23:21:04.319Z,9.88
2023-04-25T23:23:06.089Z,10.85
2023-04-25T23:25:08.090Z,5.65
2023-04-25T23:27:09.730Z,7.95
2023-04-25T23:29:11.191Z,5.32
2023-04-25T23:31:12.933Z,8.52
2023-04-25T23:33:14.409Z,13.55
2023-04-25T23:35:15.916Z,7.93
2023-04-25T23:37:17.311Z,8.55
2023-04-25T23:39:19.752Z,7.00
2023-04-25T23:41:25.212Z,10.30
2023-04-25T23:43:29.956Z,14.80
2023-04-25T23:45:31.449Z,10.07
2023-04-25T23:47:36.077Z,7.80
2023-04-25T23:49:37.525Z,7.28
2023-04-25T23:51:38.950Z,13.48
2023-04-25T23:53:43.200Z,15.32
2023-04-25T23:55:44.689Z,7.60
2023-04-25T23:57:49.070Z,7.70
2023-04-25T23:59:50.834Z,10.52
